Stations météo

réclame
Mon MeteoGroup
Vejer De La Frontera, Espagne (8457): Température de l'air & dewpoint: 01.08.2020 23:00:00 - 07.08.2020 23:00:00 (CEST)Vejer De La Frontera, Espagne (8457): Vitesse du vent & gusts: 01.08.2020 23:00:00 - 07.08.2020 23:00:00 (CEST)Vejer De La Frontera, Espagne (8457): Direction du vent: 01.08.2020 23:00:00 - 07.08.2020 23:00:00 (CEST)Vejer De La Frontera, Espagne (8457): reduced air pressure: 01.08.2020 23:00:00 - 07.08.2020 23:00:00 (CEST)Vejer De La Frontera, Espagne (8457): Quantités de précipitations: 01.08.2020 23:00:00 - 07.08.2020 23:00:00 (CEST)
Date & Time tt [°C] td [°C] ff [km/h] ff [knt] fx [km/h] fx [knt] dd ppp [hPa] rr [mm]
07.08.2020 23:00:00 - - - - - - - - -
07.08.2020 22:00:00 26,0 18,4 4 2 16 9 S 1016,7 0,0
07.08.2020 21:00:00 28,1 13,9 9 5 24 13 E 1015,6 0,0
07.08.2020 20:00:00 29,8 13,2 11 6 33 18 E 1015,5 -
07.08.2020 19:00:00 31,0 14,1 14 8 30 16 E 1015,3 0,0
07.08.2020 18:00:00 32,2 15,3 12 7 29 15 E 1015,6 0,0
07.08.2020 17:00:00 33,2 13,8 13 7 35 19 E 1015,7 0,0
07.08.2020 16:00:00 33,3 17,5 11 6 26 14 ESE 1016,3 0,0
07.08.2020 15:00:00 32,4 18,6 11 6 27 15 SE 1016,6 0,0
07.08.2020 14:00:00 31,4 19,1 13 7 31 17 SE 1017,1 -
07.08.2020 13:00:00 29,3 19,3 15 8 29 15 SSE 1017,2 0,0
07.08.2020 12:00:00 28,6 19,3 14 7 27 15 SSE 1017,2 0,0
07.08.2020 11:00:00 27,6 19,4 7 4 23 13 SE 1017,0 0,0
07.08.2020 10:00:00 25,5 19,8 13 7 32 18 ESE 1017,0 0,0
07.08.2020 09:00:00 24,0 19,7 11 6 24 13 ESE 1016,6 0,0
07.08.2020 08:00:00 23,0 19,3 10 5 25 14 ESE 1015,9 -
07.08.2020 07:00:00 22,7 18,2 10 5 25 13 SE 1015,5 0,0
07.08.2020 06:00:00 23,9 17,6 11 6 24 13 SSE 1015,2 0,0
07.08.2020 05:00:00 24,4 15,1 12 6 32 17 ESE 1014,9 0,0
07.08.2020 04:00:00 25,2 14,3 16 8 39 21 ESE 1014,6 0,0
07.08.2020 03:00:00 25,6 14,0 17 9 46 25 ESE 1014,8 0,0
07.08.2020 02:00:00 25,8 14,6 19 11 42 23 E 1014,6 -
07.08.2020 01:00:00 25,8 15,2 16 9 29 16 E 1014,8 0,0
07.08.2020 00:00:00 26,0 15,3 13 7 49 26 ESE 1014,2 0,0
06.08.2020 23:00:00 26,7 15,4 24 13 49 26 E 1013,3 0,0
06.08.2020 22:00:00 26,7 16,0 11 6 46 25 E 1012,6 0,0
06.08.2020 21:00:00 27,8 14,8 19 10 51 28 E 1012,2 0,0
06.08.2020 20:00:00 29,3 14,3 22 12 53 28 E 1011,2 -
06.08.2020 19:00:00 31,0 14,1 20 11 47 25 E 1010,5 0,0
06.08.2020 18:00:00 31,9 14,0 21 12 49 26 E 1010,3 0,0
06.08.2020 17:00:00 31,6 16,4 24 13 59 32 E 1010,4 0,0
06.08.2020 16:00:00 32,0 16,3 23 12 46 25 E 1011,1 0,0
06.08.2020 15:00:00 32,5 16,7 21 12 50 27 E 1011,5 0,0
06.08.2020 14:00:00 32,0 15,9 21 11 61 33 E 1011,8 -
06.08.2020 13:00:00 31,6 16,0 24 13 49 26 E 1011,5 0,0
06.08.2020 12:00:00 30,4 17,9 17 9 48 26 E 1011,6 0,0
06.08.2020 11:00:00 29,4 19,4 16 9 43 23 E 1011,5 0,0
06.08.2020 10:00:00 27,3 19,9 16 9 40 21 E 1011,6 0,0
06.08.2020 09:00:00 25,5 18,9 15 8 37 20 E 1011,1 0,0
06.08.2020 08:00:00 24,6 17,3 16 9 37 20 E 1010,7 -
06.08.2020 07:00:00 24,8 16,5 17 9 34 18 E 1010,6 0,0
06.08.2020 06:00:00 24,7 16,9 18 10 38 21 E 1010,4 0,0
06.08.2020 05:00:00 24,8 16,0 14 8 29 15 E 1010,6 0,0
06.08.2020 04:00:00 24,7 16,6 13 7 25 13 E 1010,1 0,0
06.08.2020 03:00:00 24,5 17,9 11 6 30 16 E 1010,4 0,0
06.08.2020 02:00:00 24,2 18,4 11 6 31 17 E 1010,7 -
06.08.2020 01:00:00 24,9 17,6 12 7 27 14 E 1010,5 0,0
06.08.2020 00:00:00 25,2 16,9 12 7 24 13 E 1010,4 0,0
05.08.2020 23:00:00 26,0 16,6 12 6 41 22 E 1010,0 0,0
05.08.2020 22:00:00 26,4 16,9 15 8 34 18 E 1009,3 0,0
05.08.2020 21:00:00 28,1 16,7 16 9 38 20 E 1008,8 0,0
05.08.2020 20:00:00 30,3 17,1 13 7 32 18 E 1008,6 -
05.08.2020 19:00:00 31,8 17,7 16 9 37 20 E 1008,5 0,0
05.08.2020 18:00:00 32,3 17,4 20 11 44 24 E 1008,9 0,0
05.08.2020 17:00:00 32,6 17,2 18 10 43 23 E 1009,1 0,0
05.08.2020 16:00:00 32,3 17,8 21 11 48 26 E 1009,4 0,0
05.08.2020 15:00:00 32,3 18,5 21 12 49 27 E 1009,6 0,0
05.08.2020 14:00:00 32,0 18,2 23 12 50 27 E 1010,2 -
05.08.2020 13:00:00 31,1 18,8 18 10 43 23 E 1010,6 0,0
05.08.2020 12:00:00 29,7 19,4 16 9 36 20 E 1010,8 0,0
05.08.2020 11:00:00 28,4 19,9 14 8 33 18 E 1010,9 0,0
05.08.2020 10:00:00 26,9 19,8 17 9 36 19 E 1011,0 0,0
05.08.2020 09:00:00 24,9 19,7 14 8 30 16 E 1010,8 0,0
05.08.2020 08:00:00 23,6 19,9 10 5 22 12 E 1010,8 -
05.08.2020 07:00:00 23,6 19,8 10 6 29 16 E 1010,5 0,0
05.08.2020 06:00:00 23,8 20,1 10 5 27 15 E 1010,5 0,0
05.08.2020 05:00:00 24,0 20,3 11 6 38 21 E 1010,8 0,0
05.08.2020 04:00:00 23,8 19,9 14 7 34 18 E 1010,6 0,0
05.08.2020 03:00:00 23,3 19,8 11 6 27 15 E 1011,1 0,0
05.08.2020 02:00:00 24,0 19,7 9 5 31 17 E 1011,7 -
05.08.2020 01:00:00 24,5 19,1 10 5 24 13 E 1011,9 0,0
05.08.2020 00:00:00 25,3 19,0 9 5 29 16 E 1011,7 0,0
04.08.2020 23:00:00 25,7 17,9 10 6 22 12 E 1011,7 0,0
04.08.2020 22:00:00 26,6 16,2 7 4 19 11 E 1011,1 0,0
04.08.2020 21:00:00 28,5 16,0 7 4 17 9 E 1010,7 0,0
04.08.2020 20:00:00 31,4 15,3 8 4 - - ESE 1010,3 -
04.08.2020 19:00:00 33,0 15,5 8 5 22 12 E 1010,3 0,0
04.08.2020 18:00:00 31,5 19,5 10 5 22 12 W 1010,7 0,0
04.08.2020 17:00:00 31,8 19,4 8 5 19 11 W 1011,1 0,0
04.08.2020 16:00:00 31,1 19,1 10 6 20 11 WSW 1011,7 0,0
04.08.2020 15:00:00 31,8 19,4 5 3 18 10 SW 1012,1 0,0
04.08.2020 14:00:00 30,9 19,3 2 1 22 12 ESE 1012,7 -
04.08.2020 13:00:00 29,4 19,1 5 3 21 11 SE 1013,0 0,0
04.08.2020 12:00:00 26,8 18,6 7 4 19 11 S 1013,3 0,0
04.08.2020 11:00:00 25,3 19,2 7 4 20 11 S 1013,2 0,0
04.08.2020 10:00:00 23,5 19,8 9 5 21 12 S 1013,5 0,0
04.08.2020 09:00:00 22,0 20,1 8 5 20 11 S 1013,2 0,0
04.08.2020 08:00:00 21,7 20,2 8 4 18 10 S 1013,0 -
04.08.2020 07:00:00 22,2 20,3 8 5 16 9 SSE 1012,7 0,0
04.08.2020 06:00:00 22,3 20,6 8 4 23 12 S 1012,7 0,0
04.08.2020 05:00:00 22,2 20,7 13 7 27 14 SSW 1012,7 0,0
04.08.2020 04:00:00 22,2 20,7 13 7 26 14 SSW 1012,7 0,0
04.08.2020 03:00:00 22,1 20,5 12 7 24 13 SSW 1013,4 0,0
04.08.2020 02:00:00 21,9 20,0 10 6 19 10 S 1013,5 -
04.08.2020 01:00:00 22,0 19,6 5 3 10 5 SSW 1013,8 0,0
04.08.2020 00:00:00 22,1 19,1 5 3 10 5 SW 1013,7 0,0
03.08.2020 23:00:00 22,4 18,5 4 2 18 10 SSW 1013,5 0,0
03.08.2020 22:00:00 22,1 17,7 10 5 19 10 WSW 1013,2 0,0
03.08.2020 21:00:00 23,8 18,0 8 5 27 15 WSW 1012,8 0,0
03.08.2020 20:00:00 25,9 17,0 20 11 35 19 W 1012,6 -
03.08.2020 19:00:00 26,6 14,0 21 12 35 19 WSW 1013,1 0,0
03.08.2020 18:00:00 27,3 15,0 19 10 33 18 WSW 1013,3 0,0
03.08.2020 17:00:00 27,4 15,4 19 11 34 19 W 1013,5 0,0
03.08.2020 16:00:00 26,9 16,2 20 11 37 20 WSW 1014,3 0,0
03.08.2020 15:00:00 26,4 16,3 22 12 38 21 W 1014,5 0,0
03.08.2020 14:00:00 26,5 15,5 18 10 36 19 WSW 1015,1 -
03.08.2020 13:00:00 25,9 15,6 14 8 29 16 W 1015,4 0,0
03.08.2020 12:00:00 24,2 15,7 14 8 29 15 W 1015,7 0,0
03.08.2020 11:00:00 24,5 15,2 14 8 29 16 W 1015,5 0,0
03.08.2020 10:00:00 22,7 14,2 13 7 23 12 W 1015,5 0,0
03.08.2020 09:00:00 21,5 16,5 11 6 22 12 W 1015,5 0,0
03.08.2020 08:00:00 20,9 17,1 10 6 18 10 W 1015,3 -
03.08.2020 07:00:00 21,4 17,2 11 6 23 12 W 1015,1 0,0
03.08.2020 06:00:00 21,7 19,6 14 8 23 12 SW 1014,5 0,0
03.08.2020 05:00:00 21,5 19,8 14 8 25 13 SW 1015,1 0,0
03.08.2020 04:00:00 21,6 19,7 15 8 24 13 SW 1015,8 0,0
03.08.2020 03:00:00 21,5 19,4 10 5 21 11 WSW 1016,0 0,0
03.08.2020 02:00:00 21,7 18,9 11 6 18 10 WSW 1016,2 -
03.08.2020 01:00:00 22,3 17,6 10 5 16 9 WSW 1016,7 0,0
03.08.2020 00:00:00 22,6 17,7 8 5 15 8 W 1016,7 0,0
02.08.2020 23:00:00 22,6 17,7 10 5 23 13 W 1016,1 0,0
02.08.2020 22:00:00 23,2 18,5 15 8 28 15 W 1015,2 0,0
02.08.2020 21:00:00 24,9 18,1 20 11 33 18 W 1015,1 0,0
02.08.2020 20:00:00 27,1 18,7 21 11 35 19 W 1014,7 -
02.08.2020 19:00:00 28,0 16,3 22 12 37 20 W 1014,9 0,0
02.08.2020 18:00:00 30,5 15,0 19 10 32 17 W 1015,0 0,0
02.08.2020 17:00:00 30,8 15,3 18 10 30 16 W 1015,5 0,0
02.08.2020 16:00:00 31,4 17,3 16 9 28 15 W 1015,8 0,0
02.08.2020 15:00:00 32,2 17,7 17 9 29 16 W 1015,9 0,0
02.08.2020 14:00:00 33,3 17,9 13 7 23 12 WSW 1016,2 -
02.08.2020 13:00:00 32,3 18,2 12 7 21 12 W 1016,2 0,0
02.08.2020 12:00:00 31,5 18,8 8 5 16 9 W 1016,4 0,0
02.08.2020 11:00:00 29,0 17,9 4 2 12 7 NW 1016,0 0,0
02.08.2020 10:00:00 26,9 19,5 4 2 14 8 W 1016,0 0,0
02.08.2020 09:00:00 25,7 18,4 6 3 13 7 NW 1015,6 0,0
02.08.2020 08:00:00 23,8 19,9 5 3 11 6 W 1015,8 -
02.08.2020 07:00:00 24,4 20,3 6 4 20 11 WNW 1015,4 0,0
02.08.2020 06:00:00 23,6 20,5 11 6 27 14 WSW 1015,9 0,0
02.08.2020 05:00:00 24,6 19,6 5 3 16 9 W 1015,3 0,0
02.08.2020 04:00:00 25,2 18,8 11 6 19 11 WSW 1015,8 0,0
02.08.2020 03:00:00 26,9 17,4 5 3 14 8 WSW 1015,9 0,0
02.08.2020 02:00:00 27,8 16,7 10 6 20 11 WNW 1016,0 -
02.08.2020 01:00:00 27,8 15,4 7 4 19 10 NW 1016,6 0,0
02.08.2020 00:00:00 27,4 14,4 11 6 32 17 WNW 1016,7 0,0
01.08.2020 23:00:00 27,5 14,8 19 10 29 16 WNW 1016,4 0,0

tt = Température de l'air
td = dewpoint
ff = Vitesse du vent
fx = gusts
dd = Direction du vent
ppp = reduced air pressure
rr = Quantités de précipitations

stations d'obs. à proximité